Time;durP1;ratioP1;P1;durP2;ratioP2;P2;SDS_P1;SDS_P2;PMS_P1;PMS_P2;Temp;Humidity;BMP_temperature;BMP_pressure;BME280_temperature;BME280_humidity;BME280_pressure;Samples;Min_cycle;Max_cycle;Signal;HPM_P1;HPM_P2
2023/04/25 04:05:06;;;;;;;3.80;2.70;;;;;;;12.75;73.06;99402.28;5613526;31;120479;-55
2023/04/25 04:08:10;;;;;;;5.47;2.87;;;;;;;12.75;73.06;99402.28;5603730;31;31346;-55
2023/04/25 04:11:13;;;;;;;4.87;2.95;;;;;;;12.26;72.88;99401.69;5584174;31;33201;-56
2023/04/25 04:14:16;;;;;;;3.72;2.80;;;;;;;12.28;72.64;99413.66;5583855;31;33292;-56
2023/04/25 04:17:18;;;;;;;3.40;2.53;;;;;;;12.23;71.23;99417.31;5583565;31;33323;-57
2023/04/25 04:20:21;;;;;;;3.87;2.60;;;;;;;12.33;73.53;99424.28;5583745;32;33519;-56
2023/04/25 04:23:23;;;;;;;5.18;2.90;;;;;;;12.39;70.66;99403.44;5583584;31;34098;-56
2023/04/25 04:26:27;;;;;;;3.05;2.58;;;;;;;12.27;71.29;99419.38;5583555;32;33683;-56
2023/04/25 04:29:30;;;;;;;4.22;3.10;;;;;;;12.38;74.59;99415.25;5583765;31;34393;-56
2023/04/25 04:32:34;;;;;;;4.22;3.35;;;;;;;12.39;73.42;99427.63;5583475;31;34841;-57
2023/04/25 04:35:38;;;;;;;4.30;3.37;;;;;;;12.41;77.96;99426.19;5583091;31;33381;-57
2023/04/25 04:38:40;;;;;;;5.47;3.37;;;;;;;12.35;81.86;99424.78;5583611;32;34431;-56
2023/04/25 04:41:45;;;;;;;4.03;3.33;;;;;;;12.17;74.69;99426.62;5583370;31;34013;-56
2023/04/25 04:44:48;;;;;;;4.53;3.25;;;;;;;12.23;80.87;99429.97;5583088;32;33665;-55
2023/04/25 04:47:52;;;;;;;4.47;3.53;;;;;;;12.17;75.49;99426.62;5583178;31;31773;-55
2023/04/25 04:50:55;;;;;;;3.80;3.15;;;;;;;12.18;77.18;99427.41;5582870;32;33708;-56
2023/04/25 04:54:02;;;;;;;4.85;2.70;;;;;;;12.27;76.19;99430.13;5582697;32;34488;-56
2023/04/25 04:57:04;;;;;;;5.22;3.30;;;;;;;12.17;77.58;99423.16;5582881;31;34445;-56
2023/04/25 05:00:10;;;;;;;4.10;3.55;;;;;;;12.09;76.83;99429.31;5582051;31;33560;-56
2023/04/25 05:03:14;;;;;;;3.08;2.60;;;;;;;12.03;79.22;99419.81;5579361;32;35641;-56
2023/04/25 05:06:18;;;;;;;4.47;2.67;;;;;;;11.89;78.92;99436.06;5583590;32;34740;-56
2023/04/25 05:09:25;;;;;;;6.50;2.50;;;;;;;11.81;78.74;99423.34;5582397;31;33382;-56
2023/04/25 05:12:28;;;;;;;7.43;2.85;;;;;;;11.81;78.50;99434.09;5582635;31;33387;-55
2023/04/25 05:15:31;;;;;;;4.35;2.58;;;;;;;11.81;77.10;99437.56;5574231;31;33064;-56
2023/04/25 05:18:33;;;;;;;4.50;2.85;;;;;;;11.69;79.26;99434.69;5570187;31;33366;-55
2023/04/25 05:21:36;;;;;;;3.95;2.40;;;;;;;11.64;79.31;99435.63;5569644;31;33363;-57
2023/04/25 05:24:39;;;;;;;4.07;2.70;;;;;;;11.53;82.53;99426.25;5569820;31;34328;-55
2023/04/25 05:27:42;;;;;;;2.60;2.17;;;;;;;11.42;81.88;99424.94;5569900;31;34621;-55
2023/04/25 05:30:44;;;;;;;3.45;2.37;;;;;;;11.32;81.47;99438.63;5569510;32;33765;-56
2023/04/25 05:33:48;;;;;;;5.53;2.80;;;;;;;11.27;82.60;99443.03;5569752;32;33233;-60
2023/04/25 05:36:52;;;;;;;4.28;3.12;;;;;;;11.11;86.82;99425.72;5569535;31;33382;-56
2023/04/25 05:39:54;;;;;;;3.05;2.33;;;;;;;11.09;86.00;99433.28;5559037;31;33562;-56
2023/04/25 05:42:58;;;;;;;4.25;2.53;;;;;;;11.18;87.65;99423.41;5550139;32;33675;-56
2023/04/25 05:46:01;;;;;;;3.65;2.30;;;;;;;11.07;87.04;99435.50;5561122;32;33336;-56
2023/04/25 05:49:03;;;;;;;3.20;2.15;;;;;;;11.18;87.36;99415.34;5569247;32;33634;-56
2023/04/25 05:52:06;;;;;;;4.00;2.40;;;;;;;11.16;85.48;99433.66;5569671;31;33390;-56
2023/04/25 05:55:08;;;;;;;5.03;2.25;;;;;;;11.06;86.96;99436.59;5569428;31;34420;-57
2023/04/25 05:58:11;;;;;;;5.03;2.85;;;;;;;11.14;85.88;99435.84;5568383;31;34970;-57
2023/04/25 06:01:14;;;;;;;3.72;2.40;;;;;;;11.11;87.09;99436.44;5568626;31;33364;-56
2023/04/25 06:04:18;;;;;;;4.78;2.72;;;;;;;11.12;87.79;99451.44;5569186;31;32564;-58
2023/04/25 06:07:20;;;;;;;4.75;2.72;;;;;;;11.21;89.24;99449.59;5568528;32;33704;-58
2023/04/25 06:10:23;;;;;;;5.28;3.22;;;;;;;11.16;87.06;99452.44;5569056;31;34254;-58
2023/04/25 06:13:25;;;;;;;4.53;3.72;;;;;;;11.33;87.73;99457.09;5568433;32;33322;-58
2023/04/25 06:16:29;;;;;;;4.90;3.15;;;;;;;11.36;88.91;99456.50;5568784;31;35271;-58
2023/04/25 06:19:33;;;;;;;4.25;3.40;;;;;;;11.34;91.59;99457.91;5559889;32;33584;-58
2023/04/25 06:22:35;;;;;;;5.78;3.72;;;;;;;11.43;93.67;99456.06;5562022;31;34258;-58
2023/04/25 06:25:38;;;;;;;5.20;3.80;;;;;;;11.60;95.93;99458.81;5566487;32;34519;-58
2023/04/25 06:28:40;;;;;;;5.40;3.78;;;;;;;11.69;90.71;99467.69;5563851;32;33732;-58
2023/04/25 06:31:43;;;;;;;4.60;3.97;;;;;;;11.80;100.00;99468.22;5560777;32;34614;-58
2023/04/25 06:34:46;;;;;;;5.07;4.00;;;;;;;11.58;90.65;99462.91;5566017;32;33293;-58
2023/04/25 06:37:49;;;;;;;5.20;3.87;;;;;;;11.84;94.99;99469.19;5567819;31;34422;-58
2023/04/25 06:40:55;;;;;;;6.10;4.75;;;;;;;11.94;90.84;99473.50;5565502;32;33264;-58
2023/04/25 06:43:57;;;;;;;6.53;4.50;;;;;;;12.04;95.53;99469.75;5558458;32;33554;-58
2023/04/25 06:47:02;;;;;;;5.93;4.37;;;;;;;11.97;86.36;99468.28;5549352;32;32961;-58
2023/04/25 06:50:05;;;;;;;6.00;4.90;;;;;;;12.18;89.91;99470.41;5567810;32;31771;-58
2023/04/25 06:53:11;;;;;;;5.40;4.53;;;;;;;12.28;88.65;99475.47;5565766;31;33837;-58
2023/04/25 06:56:14;;;;;;;6.75;4.87;;;;;;;12.39;94.11;99473.31;5559722;32;33387;-58
2023/04/25 06:59:18;;;;;;;5.30;4.40;;;;;;;12.37;86.21;99472.81;5554386;32;33412;-58
2023/04/25 07:02:21;;;;;;;5.82;4.70;;;;;;;12.46;85.67;99476.31;5553756;31;33618;-58
2023/04/25 07:05:24;;;;;;;5.47;4.55;;;;;;;12.67;93.53;99484.56;5557250;31;33266;-58
2023/04/25 07:08:28;;;;;;;4.97;4.37;;;;;;;12.44;82.67;99484.69;5551041;32;33269;-58
2023/04/25 07:11:32;;;;;;;5.68;4.50;;;;;;;12.65;89.14;99490.25;5562682;32;32024;-58
2023/04/25 07:14:34;;;;;;;5.45;4.50;;;;;;;12.70;87.30;99492.00;5563472;32;33592;-58
2023/04/25 07:17:37;;;;;;;6.97;4.50;;;;;;;12.57;79.34;99488.34;5557428;32;31971;-58
2023/04/25 07:20:39;;;;;;;6.60;4.60;;;;;;;12.56;84.69;99484.06;5553331;32;33452;-58
2023/04/25 07:23:42;;;;;;;4.93;4.25;;;;;;;12.56;90.01;99494.84;5559691;32;33700;-58
2023/04/25 07:26:45;;;;;;;5.90;4.30;;;;;;;12.59;84.54;99496.09;5564745;32;33064;-58
2023/04/25 07:29:50;;;;;;;4.77;4.27;;;;;;;12.41;82.08;99493.38;5562503;32;33744;-58
2023/04/25 07:32:52;;;;;;;4.65;3.87;;;;;;;12.44;82.49;99489.28;5561902;32;33770;-58
2023/04/25 07:35:55;;;;;;;6.03;4.20;;;;;;;12.45;80.07;99496.25;5564813;32;33022;-57
2023/04/25 07:38:57;;;;;;;6.20;4.35;;;;;;;12.43;81.58;99493.84;5561282;32;34232;-58
2023/04/25 07:42:02;;;;;;;6.30;4.32;;;;;;;12.49;90.79;99493.72;5565359;32;34359;-58
2023/04/25 07:45:05;;;;;;;7.65;4.18;;;;;;;12.64;82.77;99501.31;5564751;31;33285;-58
2023/04/25 07:48:07;;;;;;;5.65;4.35;;;;;;;12.73;81.79;99502.12;5564979;32;33258;-58
2023/04/25 07:51:10;;;;;;;5.45;4.00;;;;;;;12.79;80.02;99500.84;5566170;32;33274;-58
2023/04/25 07:54:14;;;;;;;5.50;3.92;;;;;;;12.69;79.61;99501.97;5566764;32;33328;-58
2023/04/25 07:57:19;;;;;;;6.80;4.20;;;;;;;12.68;79.60;99497.69;5566199;31;33819;-58
2023/04/25 08:00:22;;;;;;;5.07;3.95;;;;;;;12.85;78.87;99493.44;5565746;31;33290;-58
2023/04/25 08:03:27;;;;;;;4.12;3.45;;;;;;;13.04;76.59;99493.09;5548354;32;34058;-58
2023/04/25 08:06:31;;;;;;;5.45;3.72;;;;;;;13.13;77.82;99483.13;5566497;32;31732;-60
2023/04/25 08:09:35;;;;;;;5.50;3.65;;;;;;;13.28;78.94;99496.13;5564721;31;33128;-58
2023/04/25 08:12:38;;;;;;;4.72;3.58;;;;;;;13.29;73.80;99499.59;5564023;31;33592;-56
2023/04/25 08:15:41;;;;;;;4.60;3.90;;;;;;;12.93;73.24;99498.00;5557405;32;32794;-56
2023/04/25 08:18:44;;;;;;;5.22;3.60;;;;;;;13.18;75.46;99501.81;5564966;32;33560;-55
2023/04/25 08:21:47;;;;;;;3.75;3.35;;;;;;;12.96;73.51;99492.00;5565184;32;32178;-56
2023/04/25 08:24:50;;;;;;;4.00;3.40;;;;;;;12.83;72.69;99507.19;5566918;31;34625;-55
2023/04/25 08:27:52;;;;;;;4.55;3.65;;;;;;;12.81;74.47;99505.91;5564828;31;33317;-55
2023/04/25 08:30:55;;;;;;;4.65;3.58;;;;;;;12.85;74.23;99502.28;5565672;31;33380;-56
2023/04/25 08:33:58;;;;;;;4.90;3.92;;;;;;;12.98;74.67;99497.87;5566809;32;34131;-56
2023/04/25 08:37:00;;;;;;;5.43;3.40;;;;;;;13.07;74.69;99516.66;5560213;31;33290;-55
2023/04/25 08:40:06;;;;;;;4.47;3.72;;;;;;;13.03;71.12;99505.75;5560587;32;32862;-56
2023/04/25 08:43:14;;;;;;;5.45;3.70;;;;;;;13.16;74.54;99512.87;5562950;32;33256;-56
2023/04/25 08:46:18;;;;;;;5.75;3.53;;;;;;;13.18;69.92;99523.34;5563747;32;34255;-56
2023/04/25 08:49:21;;;;;;;5.35;3.87;;;;;;;13.18;75.79;99517.94;5548648;32;33040;-56
2023/04/25 08:52:30;;;;;;;5.00;3.58;;;;;;;13.31;71.46;99529.66;5550538;32;31430;-56
2023/04/25 08:55:33;;;;;;;4.20;3.50;;;;;;;13.31;71.11;99526.97;5568279;32;34349;-55
2023/04/25 08:58:36;;;;;;;4.78;4.07;;;;;;;13.36;69.92;99524.91;5563071;32;34438;-56
2023/04/25 09:01:39;;;;;;;5.07;3.70;;;;;;;13.38;69.74;99522.69;5561273;32;32924;-56
2023/04/25 09:04:43;;;;;;;4.72;4.03;;;;;;;13.28;71.83;99528.41;5562458;32;33685;-57
2023/04/25 09:07:46;;;;;;;4.47;3.60;;;;;;;13.39;70.14;99534.25;5558577;32;34429;-56
2023/04/25 09:10:52;;;;;;;5.82;4.32;;;;;;;13.49;70.45;99535.81;5557851;32;33256;-56
2023/04/25 09:14:22;;;;;;;6.12;3.47;;;;;;;13.54;71.11;99516.78;5554436;32;33371;-55
2023/04/25 09:17:26;;;;;;;10.10;3.60;;;;;;;13.51;71.07;99534.41;5562195;32;34397;-56
2023/04/25 09:20:28;;;;;;;4.70;3.45;;;;;;;13.42;69.10;99535.53;5565846;31;34529;-57
2023/04/25 09:23:41;;;;;;;4.50;3.70;;;;;;;13.45;70.43;99541.06;5563102;31;32272;-56
2023/04/25 09:26:44;;;;;;;4.25;3.70;;;;;;;13.26;68.92;99538.69;5564090;32;33791;-57
2023/04/25 09:29:57;;;;;;;6.75;3.90;;;;;;;13.43;70.07;99529.81;5566312;31;35203;-56
2023/04/25 09:33:10;;;;;;;4.05;3.65;;;;;;;13.49;70.09;99525.84;5564734;32;34168;-56
2023/04/25 09:36:13;;;;;;;5.80;3.97;;;;;;;13.56;69.63;99525.34;5567897;31;34580;-57
2023/04/25 09:39:16;;;;;;;6.05;3.55;;;;;;;13.68;71.20;99517.41;5568374;32;33729;-56
2023/04/25 09:42:25;;;;;;;5.00;3.87;;;;;;;13.85;70.42;99514.66;5566948;31;31818;-56
2023/04/25 09:45:30;;;;;;;3.95;3.50;;;;;;;13.99;69.79;99510.94;5567804;32;33787;-57
2023/04/25 09:48:32;;;;;;;3.97;3.03;;;;;;;13.98;67.63;99517.47;5567451;31;34647;-56
2023/04/25 09:51:36;;;;;;;3.85;3.20;;;;;;;13.96;66.54;99508.91;5557808;32;31902;-56
2023/04/25 09:54:39;;;;;;;4.05;3.20;;;;;;;14.05;65.40;99515.81;5559272;31;33286;-56
2023/04/25 09:57:44;;;;;;;3.78;3.25;;;;;;;14.08;66.66;99514.41;5564222;32;32040;-56
2023/04/25 10:00:47;;;;;;;4.45;2.80;;;;;;;13.89;66.64;99522.88;5555869;32;32731;-56
2023/04/25 10:03:54;;;;;;;3.10;2.50;;;;;;;13.99;66.51;99514.44;5558499;32;33350;-56
2023/04/25 10:07:01;;;;;;;2.33;2.12;;;;;;;14.05;65.82;99531.22;5545352;32;32180;-55
2023/04/25 10:10:05;;;;;;;4.22;2.60;;;;;;;13.99;64.36;99524.41;5561460;31;34405;-56
2023/04/25 10:13:08;;;;;;;3.92;2.47;;;;;;;13.82;64.55;99517.19;5557489;32;34154;-56
2023/04/25 10:16:11;;;;;;;3.97;2.55;;;;;;;13.90;64.84;99527.13;5565355;32;35166;-56
2023/04/25 10:19:15;;;;;;;2.42;2.12;;;;;;;13.73;64.58;99522.59;5561254;32;34272;-56
2023/04/25 10:22:30;;;;;;;2.03;1.73;;;;;;;13.72;66.30;99531.00;5567448;32;33844;-56
2023/04/25 10:25:33;;;;;;;2.28;1.95;;;;;;;13.79;65.31;99517.84;5557587;32;33611;-56
2023/04/25 10:29:00;;;;;;;2.40;2.10;;;;;;;13.76;63.12;99511.19;5558094;32;33346;-57
2023/04/25 10:32:03;;;;;;;4.55;1.85;;;;;;;14.00;69.25;99516.00;5560768;32;34297;-56
2023/04/25 10:35:17;;;;;;;2.60;2.03;;;;;;;14.11;64.58;99511.06;5566003;32;35124;-56
2023/04/25 10:38:19;;;;;;;2.55;2.03;;;;;;;14.16;65.44;99508.16;5561400;32;34237;-57
2023/04/25 10:41:22;;;;;;;3.75;1.70;;;;;;;14.37;64.76;99510.91;5560561;32;33073;-55
2023/04/25 10:44:31;;;;;;;2.30;1.80;;;;;;;14.28;63.79;99508.25;5566507;32;35464;-56
2023/04/25 10:47:36;;;;;;;1.50;1.40;;;;;;;14.42;61.23;99518.81;5566879;32;32686;-55
2023/04/25 10:50:39;;;;;;;2.28;1.25;;;;;;;14.30;58.97;99518.72;5563888;32;34001;-56
2023/04/25 10:53:46;;;;;;;2.10;1.30;;;;;;;14.16;60.35;99518.16;5565218;32;33570;-56
2023/04/25 10:56:50;;;;;;;3.12;1.20;;;;;;;14.17;61.98;99517.84;5567834;32;34441;-55
2023/04/25 10:59:53;;;;;;;1.30;1.20;;;;;;;14.06;59.66;99520.09;5565142;32;33729;-56
2023/04/25 11:02:59;;;;;;;2.37;1.17;;;;;;;14.17;61.25;99519.72;5565503;32;33731;-56
2023/04/25 11:06:02;;;;;;;1.00;0.90;;;;;;;14.30;59.56;99529.50;5560297;32;32245;-56
2023/04/25 11:09:13;;;;;;;1.00;1.00;;;;;;;14.24;59.51;99530.81;5561855;31;33597;-56
2023/04/25 11:12:16;;;;;;;1.23;1.08;;;;;;;14.32;59.12;99528.06;5565076;32;33677;-56
2023/04/25 11:15:19;;;;;;;0.90;0.90;;;;;;;14.57;58.86;99523.66;5564459;32;33704;-54
2023/04/25 11:18:25;;;;;;;1.95;0.98;;;;;;;14.68;57.50;99531.38;5571240;31;33783;-53
2023/04/25 11:21:31;;;;;;;1.00;0.88;;;;;;;14.82;57.46;99525.72;5565619;32;33632;-53
2023/04/25 11:24:36;;;;;;;2.10;1.10;;;;;;;14.95;57.22;99522.75;5567823;32;33550;-54
2023/04/25 11:27:50;;;;;;;1.10;0.90;;;;;;;15.06;55.77;99539.31;5561540;32;32944;-54
2023/04/25 11:30:53;;;;;;;2.60;0.90;;;;;;;14.86;57.31;99535.50;5561307;32;33649;-57
2023/04/25 11:34:00;;;;;;;1.17;0.80;;;;;;;14.74;56.35;99541.66;5557864;32;34463;-57
2023/04/25 11:37:05;;;;;;;1.00;0.80;;;;;;;14.68;56.19;99542.16;5560554;32;33306;-57
2023/04/25 11:40:09;;;;;;;1.17;0.62;;;;;;;14.57;55.98;99541.75;5562169;32;33626;-56
2023/04/25 11:43:12;;;;;;;2.00;0.75;;;;;;;14.55;55.20;99543.97;5558627;32;34278;-54
2023/04/25 11:46:15;;;;;;;0.82;0.75;;;;;;;14.62;59.65;99538.88;5558736;32;33708;-54
2023/04/25 11:49:18;;;;;;;1.12;0.93;;;;;;;14.62;53.90;99538.88;5563127;32;33757;-56
2023/04/25 11:52:21;;;;;;;0.65;0.65;;;;;;;14.73;54.62;99540.03;5568135;31;34189;-56
2023/04/25 11:55:23;;;;;;;1.12;0.90;;;;;;;14.74;54.31;99549.75;5565625;32;33723;-53
2023/04/25 11:58:26;;;;;;;1.42;1.10;;;;;;;14.71;54.82;99549.59;5566602;32;33640;-54
2023/04/25 12:01:36;;;;;;;4.57;1.15;;;;;;;14.86;56.14;99549.00;5554955;32;33638;-55
2023/04/25 12:04:40;;;;;;;1.23;0.90;;;;;;;14.97;55.28;99560.22;5567737;32;33653;-54
2023/04/25 12:07:44;;;;;;;1.00;1.00;;;;;;;14.93;53.76;99573.59;5567783;32;33816;-54
2023/04/25 12:10:47;;;;;;;3.70;1.08;;;;;;;14.94;54.65;99566.28;5568011;31;32189;-55
2023/04/25 12:13:53;;;;;;;1.55;1.10;;;;;;;15.08;52.85;99566.78;5567554;32;33245;-54
2023/04/25 12:16:57;;;;;;;1.30;1.20;;;;;;;15.24;58.90;99554.25;5568021;32;33712;-54
2023/04/25 12:20:05;;;;;;;1.62;1.23;;;;;;;15.47;60.07;99551.22;5568437;32;33591;-54
2023/04/25 12:23:08;;;;;;;2.25;1.30;;;;;;;15.45;50.08;99562.31;5567400;32;33803;-54
2023/04/25 12:26:10;;;;;;;1.48;1.02;;;;;;;15.37;49.69;99571.31;5560553;32;33623;-53
2023/04/25 12:29:21;;;;;;;3.22;1.00;;;;;;;15.30;49.52;99551.34;5550839;32;34441;-55
2023/04/25 12:32:24;;;;;;;1.23;1.12;;;;;;;15.33;48.96;99553.38;5559137;32;34371;-57
2023/04/25 12:35:26;;;;;;;2.47;1.20;;;;;;;15.34;48.75;99549.59;5570565;32;33688;-56
2023/04/25 12:38:30;;;;;;;2.25;1.20;;;;;;;15.41;50.64;99553.31;5569885;32;34469;-56
2023/04/25 12:41:32;;;;;;;1.27;1.17;;;;;;;15.44;48.27;99532.97;5569482;32;34384;-57
2023/04/25 12:44:34;;;;;;;1.87;1.30;;;;;;;15.35;47.88;99541.13;5569630;32;33690;-56
2023/04/25 12:47:38;;;;;;;3.37;1.50;;;;;;;15.48;47.05;99550.06;5570335;32;33774;-56
2023/04/25 12:50:41;;;;;;;6.07;1.48;;;;;;;15.35;44.18;99530.34;5570016;32;33740;-56
2023/04/25 12:53:43;;;;;;;1.37;1.15;;;;;;;15.49;46.83;99536.22;5570577;32;34363;-56
2023/04/25 12:56:46;;;;;;;1.83;1.37;;;;;;;15.33;45.10;99526.38;5570661;32;34410;-56
2023/04/25 12:59:48;;;;;;;1.73;1.30;;;;;;;15.33;45.46;99526.38;5570407;32;34466;-56
2023/04/25 13:02:50;;;;;;;2.58;1.40;;;;;;;15.43;44.62;99534.06;5570152;32;33721;-56
2023/04/25 13:05:54;;;;;;;1.50;1.40;;;;;;;15.29;44.58;99528.97;5570582;32;33730;-56
2023/04/25 13:08:56;;;;;;;3.28;1.60;;;;;;;15.40;47.17;99529.34;5570332;31;33619;-56
2023/04/25 13:11:58;;;;;;;1.70;1.40;;;;;;;15.56;47.08;99526.78;5570116;32;33678;-56
2023/04/25 13:15:00;;;;;;;2.20;1.50;;;;;;;15.65;46.92;99522.88;5569984;32;33726;-56
2023/04/25 13:18:05;;;;;;;1.60;1.20;;;;;;;15.74;46.29;99529.00;5570266;32;33624;-56
2023/04/25 13:21:10;;;;;;;2.90;1.75;;;;;;;15.73;45.94;99523.97;5568901;32;33711;-56
2023/04/25 13:24:13;;;;;;;3.00;1.70;;;;;;;15.81;47.25;99514.94;5567325;32;33623;-56
2023/04/25 13:27:15;;;;;;;2.60;1.80;;;;;;;15.90;44.58;99523.75;5567717;32;34360;-56
2023/04/25 13:30:17;;;;;;;1.48;1.37;;;;;;;15.98;43.34;99512.03;5569563;32;34378;-57
2023/04/25 13:33:20;;;;;;;1.95;1.42;;;;;;;16.11;48.87;99506.63;5569987;32;33915;-57
2023/04/25 13:36:22;;;;;;;3.15;1.85;;;;;;;15.99;42.11;99504.69;5569216;32;34585;-56
2023/04/25 13:39:25;;;;;;;3.10;1.60;;;;;;;15.78;43.29;99515.63;5569723;32;33672;-56
2023/04/25 13:42:28;;;;;;;4.15;1.80;;;;;;;15.84;47.24;99491.88;5569858;32;34468;-56
2023/04/25 13:45:30;;;;;;;2.45;1.58;;;;;;;15.79;41.84;99498.28;5569672;32;33358;-56
2023/04/25 13:48:35;;;;;;;2.22;1.70;;;;;;;15.84;44.43;99506.16;5569960;32;34016;-56
2023/04/25 13:51:37;;;;;;;2.65;1.70;;;;;;;15.98;41.60;99501.22;5569524;32;33676;-56
2023/04/25 13:54:41;;;;;;;1.87;1.60;;;;;;;16.00;42.35;99508.22;5569899;32;33675;-56
2023/04/25 13:57:43;;;;;;;1.60;1.50;;;;;;;15.96;43.75;99518.91;5569404;32;33764;-56
2023/04/25 14:00:46;;;;;;;3.12;1.95;;;;;;;15.82;42.80;99511.09;5569539;32;33602;-56
2023/04/25 14:03:49;;;;;;;3.05;1.52;;;;;;;15.77;43.17;99503.25;5569576;32;33150;-56
2023/04/25 14:06:52;;;;;;;4.45;1.87;;;;;;;15.80;44.29;99499.88;5569463;32;33652;-56
2023/04/25 14:09:54;;;;;;;1.85;1.52;;;;;;;15.92;43.79;99489.03;5569748;31;33897;-56
2023/04/25 14:12:56;;;;;;;3.53;1.50;;;;;;;16.00;42.23;99500.88;5569492;32;33711;-56
2023/04/25 14:15:59;;;;;;;3.92;1.70;;;;;;;16.05;43.28;99497.16;5569377;32;33616;-56
2023/04/25 14:19:01;;;;;;;3.10;1.75;;;;;;;16.03;42.56;99510.25;5569672;32;33713;-56
2023/04/25 14:22:03;;;;;;;2.15;1.52;;;;;;;16.14;45.53;99495.16;5568319;32;33800;-57
2023/04/25 14:25:06;;;;;;;2.80;1.48;;;;;;;16.10;41.65;99515.88;5569448;32;33374;-56
2023/04/25 14:28:09;;;;;;;2.78;1.80;;;;;;;15.97;41.37;99510.47;5569364;32;33721;-56
2023/04/25 14:31:11;;;;;;;2.95;1.35;;;;;;;16.00;41.21;99505.50;5569900;32;33790;-55
2023/04/25 14:34:14;;;;;;;1.95;1.70;;;;;;;15.93;39.51;99504.16;5569419;32;33648;-55
2023/04/25 14:37:16;;;;;;;6.60;1.73;;;;;;;15.86;40.11;99498.53;5567718;32;33739;-56
2023/04/25 14:40:22;;;;;;;2.05;1.62;;;;;;;15.93;42.14;99497.97;5568634;32;33760;-55
2023/04/25 14:43:24;;;;;;;2.03;1.60;;;;;;;16.10;39.72;99496.94;5567755;32;34400;-55
2023/04/25 14:46:26;;;;;;;4.05;1.60;;;;;;;16.06;42.39;99498.72;5567527;32;33730;-56
2023/04/25 14:49:29;;;;;;;2.58;1.60;;;;;;;16.13;40.95;99499.75;5567724;32;34334;-55
2023/04/25 14:52:31;;;;;;;2.33;1.58;;;;;;;16.06;39.76;99487.91;5569103;32;34464;-55
2023/04/25 14:55:34;;;;;;;3.05;1.42;;;;;;;16.03;40.43;99481.28;5567801;32;34301;-56
2023/04/25 14:58:37;;;;;;;2.40;1.62;;;;;;;16.08;43.83;99507.31;5567170;32;33267;-55
2023/04/25 15:01:40;;;;;;;3.05;1.85;;;;;;;16.07;41.37;99495.72;5568587;32;33734;-56
2023/04/25 15:04:42;;;;;;;2.00;1.50;;;;;;;16.09;38.48;99495.34;5569211;32;34399;-55
2023/04/25 15:07:45;;;;;;;2.65;1.70;;;;;;;16.12;39.85;99497.37;5567195;32;33662;-55
2023/04/25 15:10:47;;;;;;;2.35;1.37;;;;;;;16.06;41.92;99496.84;5569397;32;33710;-55
2023/04/25 15:13:49;;;;;;;1.80;1.65;;;;;;;15.96;39.22;99506.19;5568047;32;33976;-55
2023/04/25 15:16:52;;;;;;;2.53;1.70;;;;;;;15.83;38.78;99495.72;5568988;32;33679;-55
2023/04/25 15:19:55;;;;;;;2.28;1.50;;;;;;;15.86;39.87;99503.13;5568969;32;33648;-55
2023/04/25 15:22:57;;;;;;;2.45;1.58;;;;;;;15.88;41.12;99512.47;5569223;32;33738;-55
2023/04/25 15:25:59;;;;;;;2.70;1.62;;;;;;;15.77;39.16;99503.25;5569291;32;34328;-55
